TimeMST,TemperatureF,Dew PointF,Humidity,Sea Level PressureIn,VisibilityMPH,Wind Direction,Wind SpeedMPH,Gust SpeedMPH,PrecipitationIn,Events,Conditions,WindDirDegrees,DateUTC
12:54 AM,60.1,53.1,78,29.99,10.0,Calm,Calm,-,N/A,,Mostly Cloudy,0,2013-08-28 07:54:00
1:54 AM,57.9,52.0,81,30.00,10.0,Calm,Calm,-,N/A,,Clear,0,2013-08-28 08:54:00
2:54 AM,55.0,52.0,89,30.03,10.0,Calm,Calm,-,N/A,,Mostly Cloudy,0,2013-08-28 09:54:00
3:54 AM,54.0,51.1,90,30.04,10.0,Calm,Calm,-,N/A,,Partly Cloudy,0,2013-08-28 10:54:00
4:54 AM,52.0,50.0,93,30.00,10.0,Calm,Calm,-,N/A,,Clear,0,2013-08-28 11:54:00
5:54 AM,52.0,50.0,93,30.03,10.0,Calm,Calm,-,N/A,,Clear,0,2013-08-28 12:54:00
6:54 AM,59.0,54.0,83,30.04,10.0,Calm,Calm,-,N/A,,Scattered Clouds,0,2013-08-28 13:54:00
7:54 AM,68.0,54.0,61,30.03,10.0,ENE,3.5,-,N/A,,Clear,70,2013-08-28 14:54:00
8:54 AM,73.0,53.1,49,30.01,10.0,Calm,Calm,-,N/A,,Clear,0,2013-08-28 15:54:00
9:54 AM,75.0,52.0,44,30.01,10.0,SE,5.8,-,N/A,,Clear,140,2013-08-28 16:54:00
10:54 AM,77.0,51.1,40,30.01,10.0,SW,4.6,-,N/A,,Clear,220,2013-08-28 17:54:00
11:54 AM,79.0,54.0,42,29.98,10.0,North,4.6,-,N/A,,Mostly Cloudy,350,2013-08-28 18:54:00
12:54 PM,78.1,51.1,39,29.99,10.0,NE,8.1,-,N/A,,Mostly Cloudy,50,2013-08-28 19:54:00
1:54 PM,69.1,51.1,53,30.03,9.0,ESE,13.8,-,0.00,Rain-Thunderstorm,Light Thunderstorms and Rain,120,2013-08-28 20:54:00
2:54 PM,62.1,57.0,84,30.08,5.0,NE,4.6,-,0.15,Rain,Light Rain,40,2013-08-28 21:54:00
3:54 PM,70.0,57.9,65,30.02,10.0,Calm,Calm,-,0.01,,Mostly Cloudy,0,2013-08-28 22:54:00
4:54 PM,77.0,53.1,43,29.99,10.0,NE,8.1,-,N/A,,Scattered Clouds,50,2013-08-28 23:54:00
5:54 PM,75.9,50.0,40,30.00,10.0,NNE,3.5,-,N/A,,Scattered Clouds,30,2013-08-29 00:54:00
6:54 PM,66.0,57.0,73,30.01,10.0,Calm,Calm,-,N/A,,Partly Cloudy,0,2013-08-29 01:54:00
7:54 PM,60.1,55.9,86,30.02,10.0,Calm,Calm,-,N/A,,Clear,0,2013-08-29 02:54:00
8:54 PM,57.9,54.0,87,30.03,10.0,Calm,Calm,-,N/A,,Clear,0,2013-08-29 03:54:00
9:54 PM,57.0,53.1,87,30.04,10.0,Calm,Calm,-,N/A,,Clear,0,2013-08-29 04:54:00
10:54 PM,57.0,53.1,87,30.04,10.0,ENE,3.5,-,N/A,,Clear,60,2013-08-29 05:54:00
11:54 PM,55.9,52.0,87,30.03,10.0,Calm,Calm,-,N/A,,Clear,0,2013-08-29 06:54:00